Time;durP1;ratioP1;P1;durP2;ratioP2;P2;SDS_P1;SDS_P2;PMS_P1;PMS_P2;Temp;Humidity;BMP_temperature;BMP_pressure;BME280_temperature;BME280_humidity;BME280_pressure;Samples;Min_cycle;Max_cycle;Signal;HPM_P1;HPM_P2
2022/11/11 00:00:13;;;;;;;53.13;29.65;;;;;;;;;;5021715;28;20156;-76
2022/11/11 00:02:59;;;;;;;50.47;29.45;;;;;;;;;;5027575;28;20433;-78
2022/11/11 00:05:45;;;;;;;57.67;32.88;;;;;;;;;;5031411;28;20264;-77
2022/11/11 00:08:31;;;;;;;54.55;33.42;;;;;;;;;;5026351;28;20199;-78
2022/11/11 00:11:20;;;;;;;60.47;30.92;;;;;;;;;;4991920;28;20049;-77
2022/11/11 00:14:04;;;;;;;53.70;30.77;;;;;;;;;;5022319;28;20068;-79
2022/11/11 00:25:59;;;;;;;42.85;26.30;;;;;;;;;;5023186;28;20048;-79
2022/11/11 00:28:44;;;;;;;44.08;26.23;;;;;;;;;;5022582;28;20564;-78
2022/11/11 00:31:30;;;;;;;39.70;25.58;;;;;;;;;;5027845;28;20043;-79
2022/11/11 00:34:17;;;;;;;45.25;27.08;;;;;;;;;;5021774;28;20053;-78
2022/11/11 00:37:02;;;;;;;40.15;26.85;;;;;;;;;;5010420;28;20087;-79
2022/11/11 00:39:46;;;;;;;39.22;24.98;;;;;;;;;;5028472;28;20108;-77
2022/11/11 00:42:32;;;;;;;40.20;24.98;;;;;;;;;;5015040;28;20133;-78
2022/11/11 00:45:16;;;;;;;40.42;24.98;;;;;;;;;;5030221;28;20049;-79
2022/11/11 00:51:03;;;;;;;39.92;25.48;;;;;;;;;;5027367;28;20572;-78
2022/11/11 00:53:48;;;;;;;47.65;28.80;;;;;;;;;;5026515;28;20407;-78
2022/11/11 00:56:48;;;;;;;37.13;23.98;;;;;;;;;;5009250;28;20040;-77
2022/11/11 00:59:32;;;;;;;43.70;25.88;;;;;;;;;;5027551;28;20048;-78
2022/11/11 01:02:16;;;;;;;43.40;27.20;;;;;;;;;;5026115;28;20052;-78
2022/11/11 01:05:03;;;;;;;45.70;27.42;;;;;;;;;;5020127;28;20052;-77
2022/11/11 01:07:50;;;;;;;38.22;24.50;;;;;;;;;;5025445;28;20072;-76
2022/11/11 01:10:42;;;;;;;42.75;25.92;;;;;;;;;;5025089;28;20048;-77
2022/11/11 01:13:30;;;;;;;42.20;24.83;;;;;;;;;;5007670;28;20051;-77
2022/11/11 01:16:18;;;;;;;38.67;24.45;;;;;;;;;;5026516;28;20095;-77
2022/11/11 01:19:02;;;;;;;41.38;24.85;;;;;;;;;;5007254;28;20407;-77
2022/11/11 01:21:47;;;;;;;42.90;25.88;;;;;;;;;;5019072;28;20091;-76
2022/11/11 01:24:31;;;;;;;44.47;25.75;;;;;;;;;;5021130;28;20096;-77
2022/11/11 01:27:16;;;;;;;44.55;26.40;;;;;;;;;;5025514;28;20111;-77
2022/11/11 01:30:02;;;;;;;42.88;26.55;;;;;;;;;;5030942;28;20505;-77
2022/11/11 01:32:47;;;;;;;47.70;29.00;;;;;;;;;;5012896;28;20048;-77
2022/11/11 01:35:31;;;;;;;53.55;33.55;;;;;;;;;;5027270;28;20098;-76
2022/11/11 01:38:16;;;;;;;52.00;32.92;;;;;;;;;;5021720;28;20149;-77
2022/11/11 01:41:31;;;;;;;50.35;29.35;;;;;;;;;;5020503;28;20044;-77
2022/11/11 01:44:10;;;;;;;44.97;28.48;;;;;;;;;;5027383;28;20498;-75
2022/11/11 01:47:03;;;;;;;47.00;28.35;;;;;;;;;;5021949;28;20139;-77
2022/11/11 01:50:00;;;;;;;50.53;29.08;;;;;;;;;;5025995;28;20140;-76
2022/11/11 01:52:45;;;;;;;55.22;30.48;;;;;;;;;;5023591;28;20048;-78
2022/11/11 01:55:30;;;;;;;45.78;26.88;;;;;;;;;;5020333;28;20112;-77
2022/11/11 01:58:17;;;;;;;35.60;23.58;;;;;;;;;;5022228;28;20103;-77
2022/11/11 02:01:02;;;;;;;28.23;20.55;;;;;;;;;;5014037;28;20056;-77
2022/11/11 02:07:01;;;;;;;30.55;20.98;;;;;;;;;;5022729;28;20133;-77
2022/11/11 02:09:47;;;;;;;30.20;20.42;;;;;;;;;;5019237;28;20136;-76
2022/11/11 02:15:36;;;;;;;26.00;18.15;;;;;;;;;;5019636;28;20095;-78
2022/11/11 02:18:20;;;;;;;24.70;17.73;;;;;;;;;;5015063;28;20145;-77
2022/11/11 02:21:06;;;;;;;23.10;17.17;;;;;;;;;;5013001;28;20080;-76
2022/11/11 02:24:07;;;;;;;23.70;17.20;;;;;;;;;;5015734;28;20053;-78
2022/11/11 02:26:54;;;;;;;24.92;18.13;;;;;;;;;;5015809;28;20549;-77
2022/11/11 02:29:40;;;;;;;24.25;17.40;;;;;;;;;;5014792;28;20052;-77
2022/11/11 02:32:25;;;;;;;25.20;18.27;;;;;;;;;;5015270;28;20073;-75
2022/11/11 02:35:14;;;;;;;24.40;18.88;;;;;;;;;;5021248;28;20084;-77
2022/11/11 02:37:59;;;;;;;25.35;18.02;;;;;;;;;;5034935;28;20103;-78
2022/11/11 02:43:47;;;;;;;28.77;19.70;;;;;;;;;;5034562;28;20103;-77
2022/11/11 02:46:31;;;;;;;31.13;19.10;;;;;;;;;;5034769;28;20160;-76
2022/11/11 02:49:17;;;;;;;23.27;18.02;;;;;;;;;;5033310;28;20091;-76
2022/11/11 02:52:02;;;;;;;25.30;16.85;;;;;;;;;;5039858;28;20056;-77
2022/11/11 02:54:48;;;;;;;25.50;17.60;;;;;;;;;;5034162;28;20407;-78
2022/11/11 02:57:33;;;;;;;24.10;16.67;;;;;;;;;;5034054;28;20060;-78
2022/11/11 03:00:18;;;;;;;24.90;16.85;;;;;;;;;;5034441;28;20525;-77
2022/11/11 03:03:03;;;;;;;22.67;16.40;;;;;;;;;;5033911;28;20052;-78
2022/11/11 03:05:47;;;;;;;24.02;17.48;;;;;;;;;;5018834;28;20406;-78
2022/11/11 03:08:32;;;;;;;24.80;17.70;;;;;;;;;;5019392;28;20079;-77
2022/11/11 03:11:26;;;;;;;26.05;19.05;;;;;;;;;;5034035;28;20102;-78
2022/11/11 03:14:10;;;;;;;30.25;21.25;;;;;;;;;;5033673;28;20115;-77
2022/11/11 03:21:03;;;;;;;32.83;22.38;;;;;;;;;;5034708;28;20525;-77
2022/11/11 03:23:13;;;;;;;33.85;22.83;;;;;;;;;;5033425;28;20529;-76
2022/11/11 03:25:58;;;;;;;34.05;21.85;;;;;;;;;;5019562;28;20186;-78
2022/11/11 03:28:42;;;;;;;32.05;21.98;;;;;;;;;;5033965;28;20449;-78
2022/11/11 03:31:28;;;;;;;33.75;22.90;;;;;;;;;;5034082;28;20072;-78
2022/11/11 03:34:21;;;;;;;32.13;22.52;;;;;;;;;;5033753;28;20111;-77
2022/11/11 03:40:11;;;;;;;32.80;21.02;;;;;;;;;;5033358;28;20060;-78
2022/11/11 03:42:56;;;;;;;32.67;20.10;;;;;;;;;;5033900;28;20063;-77
2022/11/11 03:45:40;;;;;;;33.63;21.83;;;;;;;;;;5033465;28;20052;-78
2022/11/11 03:48:27;;;;;;;32.05;21.95;;;;;;;;;;5032090;28;20095;-78
2022/11/11 03:51:12;;;;;;;33.58;22.67;;;;;;;;;;5030871;28;20051;-77
2022/11/11 03:53:57;;;;;;;37.42;22.63;;;;;;;;;;5018031;28;20060;-77
2022/11/11 03:56:41;;;;;;;33.20;21.40;;;;;;;;;;5032891;28;20048;-76
2022/11/11 03:59:45;;;;;;;31.60;20.40;;;;;;;;;;5033406;28;20068;-77
2022/11/11 04:11:42;;;;;;;31.63;21.80;;;;;;;;;;5033661;28;20156;-78
2022/11/11 04:17:29;;;;;;;39.40;22.25;;;;;;;;;;5031067;28;20053;-78
2022/11/11 04:23:16;;;;;;;33.90;21.73;;;;;;;;;;5013548;28;20104;-77
2022/11/11 04:26:01;;;;;;;34.95;21.95;;;;;;;;;;5020624;28;20049;-78
2022/11/11 04:34:54;;;;;;;34.17;21.02;;;;;;;;;;5032794;28;20121;-77
2022/11/11 04:37:50;;;;;;;33.95;19.92;;;;;;;;;;5032355;28;20064;-78
2022/11/11 04:46:40;;;;;;;33.58;20.55;;;;;;;;;;5032259;28;20056;-77
2022/11/11 04:49:24;;;;;;;31.27;18.00;;;;;;;;;;5032012;28;20056;-78
2022/11/11 04:52:28;;;;;;;32.67;18.75;;;;;;;;;;5015594;28;20095;-78
2022/11/11 04:58:24;;;;;;;33.45;19.98;;;;;;;;;;5011132;28;20056;-78
2022/11/11 05:03:14;;;;;;;31.08;19.90;;;;;;;;;;5030967;28;20195;-77
2022/11/11 05:04:14;;;;;;;42.65;20.80;;;;;;;;;;4989334;28;20063;-79
2022/11/11 05:10:03;;;;;;;;;;;;;;;;;;5030514;28;20056;-77
2022/11/11 05:12:47;;;;;;;37.55;23.38;;;;;;;;;;5030166;28;19928;-78
2022/11/11 05:21:40;;;;;;;42.10;22.98;;;;;;;;;;5032365;28;20075;-77
2022/11/11 05:27:27;;;;;;;39.40;23.25;;;;;;;;;;5026383;28;20056;-78
2022/11/11 05:30:17;;;;;;;43.22;23.75;;;;;;;;;;5032275;28;20048;-78
2022/11/11 05:33:02;;;;;;;35.58;21.05;;;;;;;;;;5015087;28;20055;-77
2022/11/11 05:35:46;;;;;;;41.88;23.92;;;;;;;;;;5030422;28;20079;-78
2022/11/11 05:38:31;;;;;;;32.45;21.40;;;;;;;;;;5026745;28;20061;-78
2022/11/11 05:41:17;;;;;;;35.92;19.92;;;;;;;;;;5030459;28;20060;-78
2022/11/11 05:44:02;;;;;;;38.78;22.13;;;;;;;;;;5025628;28;20064;-77
2022/11/11 05:46:46;;;;;;;38.25;21.17;;;;;;;;;;5028964;28;20506;-77
2022/11/11 05:49:31;;;;;;;37.13;21.48;;;;;;;;;;5027541;28;20080;-77
2022/11/11 05:52:16;;;;;;;36.40;22.23;;;;;;;;;;5023347;28;20064;-78
2022/11/11 05:55:01;;;;;;;38.35;22.45;;;;;;;;;;5010556;28;20143;-78
2022/11/11 05:57:46;;;;;;;40.35;22.50;;;;;;;;;;5033788;28;20044;-77
2022/11/11 06:00:31;;;;;;;40.95;23.15;;;;;;;;;;5033886;28;20048;-77
2022/11/11 06:03:15;;;;;;;42.15;22.25;;;;;;;;;;5019181;28;20055;-79
2022/11/11 06:06:00;;;;;;;55.58;24.50;;;;;;;;;;5032612;28;20068;-77
2022/11/11 06:08:45;;;;;;;37.63;23.45;;;;;;;;;;5033130;28;20521;-77
2022/11/11 06:11:30;;;;;;;48.45;24.23;;;;;;;;;;5019618;28;20140;-77
2022/11/11 06:14:14;;;;;;;42.08;22.58;;;;;;;;;;5031173;28;20552;-77
2022/11/11 06:16:58;;;;;;;39.13;22.40;;;;;;;;;;5031555;28;20060;-77
2022/11/11 06:19:42;;;;;;;34.30;21.30;;;;;;;;;;5016937;28;20052;-76
2022/11/11 06:28:36;;;;;;;27.38;18.42;;;;;;;;;;5034600;28;20453;-77
2022/11/11 06:31:23;;;;;;;39.20;20.58;;;;;;;;;;5027669;28;20399;-77
2022/11/11 06:34:07;;;;;;;32.38;20.35;;;;;;;;;;5034432;28;20377;-77
2022/11/11 06:36:51;;;;;;;31.95;19.88;;;;;;;;;;5019622;28;20076;-77
2022/11/11 06:39:36;;;;;;;26.85;18.92;;;;;;;;;;5033692;28;20045;-77
2022/11/11 06:42:20;;;;;;;32.35;21.92;;;;;;;;;;5019372;28;20072;-76
2022/11/11 06:45:05;;;;;;;35.65;21.35;;;;;;;;;;5014697;28;20094;-76
2022/11/11 06:47:50;;;;;;;38.10;21.15;;;;;;;;;;5014265;28;20057;-77
2022/11/11 06:50:35;;;;;;;30.25;20.85;;;;;;;;;;5014178;28;20084;-77
2022/11/11 06:53:21;;;;;;;31.88;20.85;;;;;;;;;;5014345;28;20498;-77
2022/11/11 06:56:06;;;;;;;34.65;21.33;;;;;;;;;;5014030;28;20096;-77
2022/11/11 06:58:50;;;;;;;30.50;20.42;;;;;;;;;;5014084;28;20092;-77
2022/11/11 07:01:35;;;;;;;34.20;20.88;;;;;;;;;;5014199;28;20580;-78
2022/11/11 07:04:21;;;;;;;39.50;22.55;;;;;;;;;;5007937;28;20458;-77
2022/11/11 07:07:05;;;;;;;30.88;21.67;;;;;;;;;;5030968;28;20107;-78
2022/11/11 07:09:50;;;;;;;37.20;21.63;;;;;;;;;;5034356;28;20102;-77
2022/11/11 07:12:34;;;;;;;36.08;21.98;;;;;;;;;;5034283;28;20402;-77
2022/11/11 07:15:18;;;;;;;40.35;23.58;;;;;;;;;;5019013;28;20049;-77
2022/11/11 07:18:03;;;;;;;37.35;23.23;;;;;;;;;;5015384;28;20099;-76
2022/11/11 07:20:47;;;;;;;32.08;23.38;;;;;;;;;;5018789;28;20064;-78
2022/11/11 07:23:32;;;;;;;36.38;22.65;;;;;;;;;;5018865;28;20191;-76
2022/11/11 07:26:16;;;;;;;36.88;22.02;;;;;;;;;;5033797;28;20095;-78
2022/11/11 07:29:00;;;;;;;39.38;23.25;;;;;;;;;;5033577;28;20118;-77
2022/11/11 07:31:45;;;;;;;30.35;20.75;;;;;;;;;;5033661;28;20430;-77
2022/11/11 07:34:29;;;;;;;38.42;21.95;;;;;;;;;;5018518;28;20131;-76
2022/11/11 07:37:14;;;;;;;33.65;21.98;;;;;;;;;;5027507;28;20414;-77
2022/11/11 07:39:58;;;;;;;33.47;22.42;;;;;;;;;;5033221;28;20060;-77
2022/11/11 07:42:43;;;;;;;37.88;23.83;;;;;;;;;;5020746;28;20160;-77
2022/11/11 07:45:28;;;;;;;32.45;22.65;;;;;;;;;;5013483;28;20052;-77
2022/11/11 07:48:12;;;;;;;35.78;22.95;;;;;;;;;;5013054;28;20107;-77
2022/11/11 07:50:56;;;;;;;37.13;22.65;;;;;;;;;;4998365;28;20053;-76
2022/11/11 07:53:41;;;;;;;33.78;22.63;;;;;;;;;;5013391;28;20048;-78
2022/11/11 07:56:26;;;;;;;37.40;23.23;;;;;;;;;;5031933;28;20075;-77
2022/11/11 07:59:12;;;;;;;35.35;24.35;;;;;;;;;;5032633;28;20047;-77
2022/11/11 08:01:56;;;;;;;34.47;23.40;;;;;;;;;;5017605;28;20136;-76
2022/11/11 08:04:41;;;;;;;38.95;23.77;;;;;;;;;;5033691;28;20445;-77
2022/11/11 08:07:25;;;;;;;39.50;23.92;;;;;;;;;;5017218;28;20059;-77
2022/11/11 08:10:10;;;;;;;36.67;23.25;;;;;;;;;;5017878;28;20068;-78
2022/11/11 08:15:58;;;;;;;37.15;22.52;;;;;;;;;;5031915;28;20040;-78
2022/11/11 08:18:42;;;;;;;33.85;22.85;;;;;;;;;;5017538;28;20103;-76
2022/11/11 08:21:28;;;;;;;36.92;23.02;;;;;;;;;;5032462;28;20048;-77
2022/11/11 08:24:12;;;;;;;33.95;22.73;;;;;;;;;;5018132;28;20051;-78
2022/11/11 08:26:58;;;;;;;34.78;22.67;;;;;;;;;;5032185;28;20120;-77
2022/11/11 08:29:43;;;;;;;39.13;22.63;;;;;;;;;;5017993;28;20044;-77
2022/11/11 08:32:27;;;;;;;33.38;21.98;;;;;;;;;;5032419;28;20076;-78
2022/11/11 08:35:12;;;;;;;39.20;23.40;;;;;;;;;;5032877;28;20517;-76
2022/11/11 08:38:02;;;;;;;35.00;22.45;;;;;;;;;;5031978;28;20068;-77
2022/11/11 08:40:47;;;;;;;33.63;22.35;;;;;;;;;;5031759;28;20564;-76
2022/11/11 08:43:32;;;;;;;36.15;22.23;;;;;;;;;;5017743;28;20103;-78
2022/11/11 08:46:16;;;;;;;29.65;21.00;;;;;;;;;;5032161;28;20258;-78
2022/11/11 08:49:01;;;;;;;33.10;22.45;;;;;;;;;;5017400;28;20052;-78
2022/11/11 08:51:45;;;;;;;42.50;26.90;;;;;;;;;;5017084;28;20056;-77
2022/11/11 08:54:31;;;;;;;36.95;25.40;;;;;;;;;;5031511;28;20110;-78
2022/11/11 08:57:16;;;;;;;37.30;24.77;;;;;;;;;;5032619;28;20095;-78
2022/11/11 09:00:00;;;;;;;38.42;23.63;;;;;;;;;;5031424;28;20052;-76
2022/11/11 09:02:45;;;;;;;37.72;23.23;;;;;;;;;;5031891;28;20519;-79
2022/11/11 09:05:29;;;;;;;43.42;25.40;;;;;;;;;;5032037;28;20548;-78
2022/11/11 09:08:14;;;;;;;37.58;23.55;;;;;;;;;;5017418;28;20064;-78
2022/11/11 09:10:58;;;;;;;47.53;24.83;;;;;;;;;;5031308;28;20102;-78
2022/11/11 09:13:45;;;;;;;46.75;25.92;;;;;;;;;;5031131;28;20052;-78
2022/11/11 09:16:30;;;;;;;42.65;25.50;;;;;;;;;;5029340;28;20088;-79
2022/11/11 09:19:14;;;;;;;40.05;26.02;;;;;;;;;;5014582;28;20128;-78
2022/11/11 09:21:59;;;;;;;36.65;22.60;;;;;;;;;;5030145;28;20095;-78
2022/11/11 09:24:44;;;;;;;36.90;24.48;;;;;;;;;;5029920;28;20423;-77
2022/11/11 09:27:29;;;;;;;40.53;24.58;;;;;;;;;;5016514;28;20074;-77
2022/11/11 09:30:14;;;;;;;44.05;26.27;;;;;;;;;;5031599;28;20063;-78
2022/11/11 09:33:03;;;;;;;38.75;27.67;;;;;;;;;;5016337;28;20079;-78
2022/11/11 09:35:47;;;;;;;40.55;23.95;;;;;;;;;;5032075;28;20048;-77
2022/11/11 09:38:32;;;;;;;40.10;25.45;;;;;;;;;;5031767;28;20415;-77
2022/11/11 09:41:23;;;;;;;42.58;26.20;;;;;;;;;;5030960;28;20060;-77
2022/11/11 09:44:20;;;;;;;40.80;27.58;;;;;;;;;;5031884;28;20056;-76
2022/11/11 09:47:40;;;;;;;45.88;27.65;;;;;;;;;;5031594;28;20186;-76
2022/11/11 09:50:29;;;;;;;44.92;27.98;;;;;;;;;;4951861;29;20094;-76
2022/11/11 09:53:20;;;;;;;43.80;26.30;;;;;;;;;;5031713;28;20505;-77
2022/11/11 09:56:15;;;;;;;40.40;26.48;;;;;;;;;;5030414;28;20135;-76
2022/11/11 09:59:07;;;;;;;44.42;26.98;;;;;;;;;;5031335;28;20049;-75
2022/11/11 10:01:56;;;;;;;48.00;29.20;;;;;;;;;;5031851;28;20089;-77
2022/11/11 10:05:04;;;;;;;43.55;27.00;;;;;;;;;;5031425;28;20564;-76
2022/11/11 10:07:59;;;;;;;41.38;26.75;;;;;;;;;;5031544;28;20513;-76
2022/11/11 10:10:46;;;;;;;37.30;25.45;;;;;;;;;;5016132;28;20439;-77
2022/11/11 10:13:36;;;;;;;39.95;25.00;;;;;;;;;;5031457;28;20051;-77
2022/11/11 10:16:46;;;;;;;36.13;23.00;;;;;;;;;;5031721;28;20052;-78
2022/11/11 10:19:49;;;;;;;34.95;22.85;;;;;;;;;;5031364;28;20586;-78
2022/11/11 10:22:37;;;;;;;31.33;21.40;;;;;;;;;;5031683;28;20765;-76
2022/11/11 10:25:24;;;;;;;34.42;21.85;;;;;;;;;;5016272;28;20056;-77
2022/11/11 10:28:18;;;;;;;40.70;23.35;;;;;;;;;;5016978;28;20056;-76
2022/11/11 10:31:09;;;;;;;38.50;23.33;;;;;;;;;;5031304;28;20107;-77
2022/11/11 10:34:12;;;;;;;38.45;24.35;;;;;;;;;;5031401;28;20560;-76
2022/11/11 10:36:58;;;;;;;37.10;23.63;;;;;;;;;;5016193;28;20051;-77
2022/11/11 10:39:57;;;;;;;34.10;22.75;;;;;;;;;;5034709;28;20071;-77
2022/11/11 10:42:42;;;;;;;36.78;21.90;;;;;;;;;;5034779;28;20403;-77
2022/11/11 10:45:59;;;;;;;42.75;24.50;;;;;;;;;;5034745;28;20099;-76
2022/11/11 10:48:43;;;;;;;40.28;21.48;;;;;;;;;;5035198;28;20118;-76
2022/11/11 10:51:37;;;;;;;37.33;24.20;;;;;;;;;;5034801;28;20056;-77
2022/11/11 10:54:24;;;;;;;38.25;21.20;;;;;;;;;;5019356;28;20529;-77
2022/11/11 10:57:28;;;;;;;34.88;22.73;;;;;;;;;;5034926;28;20048;-77
2022/11/11 11:00:14;;;;;;;;;;;;;;;;;;5034989;28;20569;-77
2022/11/11 11:03:22;;;;;;;38.30;22.13;;;;;;;;;;5019916;28;19924;-77
2022/11/11 11:06:19;;;;;;;37.75;22.25;;;;;;;;;;5034537;28;20140;-77
2022/11/11 11:09:30;;;;;;;36.65;21.35;;;;;;;;;;5019935;28;20102;-77
2022/11/11 11:12:31;;;;;;;33.58;20.65;;;;;;;;;;5034408;28;20430;-77
2022/11/11 11:15:21;;;;;;;38.28;22.48;;;;;;;;;;5034770;28;20052;-77
2022/11/11 11:18:15;;;;;;;32.53;21.20;;;;;;;;;;5033545;28;20470;-77
2022/11/11 11:21:04;;;;;;;33.50;21.20;;;;;;;;;;5034331;28;20071;-75
2022/11/11 11:23:48;;;;;;;34.55;22.67;;;;;;;;;;5033680;28;20052;-76
2022/11/11 11:26:51;;;;;;;34.67;22.23;;;;;;;;;;5005810;28;20537;-77
2022/11/11 11:29:41;;;;;;;31.67;19.80;;;;;;;;;;5034188;28;20176;-78
2022/11/11 11:32:30;;;;;;;42.47;23.27;;;;;;;;;;5034293;28;20385;-77
2022/11/11 11:35:38;;;;;;;33.15;20.10;;;;;;;;;;5033981;28;20048;-77
2022/11/11 11:38:40;;;;;;;31.08;19.45;;;;;;;;;;5018756;28;20056;-78
2022/11/11 11:41:50;;;;;;;29.08;17.88;;;;;;;;;;5033537;28;20120;-76
2022/11/11 11:44:37;;;;;;;28.17;16.70;;;;;;;;;;5027026;28;20051;-77
2022/11/11 11:47:35;;;;;;;26.02;16.63;;;;;;;;;;5015160;28;20055;-76
2022/11/11 11:50:55;;;;;;;30.13;16.92;;;;;;;;;;5033824;28;20104;-77
2022/11/11 11:53:42;;;;;;;28.42;15.30;;;;;;;;;;5001579;28;20398;-77
2022/11/11 11:56:40;;;;;;;28.48;16.77;;;;;;;;;;5034158;28;20165;-77
2022/11/11 12:00:03;;;;;;;23.92;15.60;;;;;;;;;;5031255;28;20075;-77
2022/11/11 12:03:15;;;;;;;27.23;16.33;;;;;;;;;;5024678;28;20063;-78
2022/11/11 12:06:02;;;;;;;23.80;15.70;;;;;;;;;;5032896;28;20095;-77
2022/11/11 12:08:53;;;;;;;22.10;15.00;;;;;;;;;;5033451;28;20135;-77
2022/11/11 12:12:03;;;;;;;25.15;16.35;;;;;;;;;;5033066;28;20477;-77
2022/11/11 12:15:12;;;;;;;27.33;15.50;;;;;;;;;;5033096;28;20106;-77
2022/11/11 12:18:34;;;;;;;25.63;15.77;;;;;;;;;;5033015;28;20048;-76
2022/11/11 12:21:23;;;;;;;23.40;15.38;;;;;;;;;;5033075;28;20163;-77
2022/11/11 12:24:42;;;;;;;25.33;16.02;;;;;;;;;;5032766;28;20064;-77
2022/11/11 12:27:47;;;;;;;29.52;15.82;;;;;;;;;;5030077;28;20047;-77
2022/11/11 12:30:32;;;;;;;21.70;14.38;;;;;;;;;;5028914;28;20561;-78
2022/11/11 12:33:54;;;;;;;27.02;17.10;;;;;;;;;;5031444;28;20047;-78
2022/11/11 12:37:02;;;;;;;24.17;15.57;;;;;;;;;;5027563;28;20394;-77
2022/11/11 12:40:34;;;;;;;24.73;15.43;;;;;;;;;;5030608;28;20105;-78
2022/11/11 12:44:07;;;;;;;25.05;16.90;;;;;;;;;;4999411;28;20095;-77
2022/11/11 12:47:03;;;;;;;24.27;16.27;;;;;;;;;;4914015;29;20501;-77
2022/11/11 12:50:23;;;;;;;23.90;16.45;;;;;;;;;;4913586;29;20505;-77
2022/11/11 12:53:32;;;;;;;34.53;18.88;;;;;;;;;;5025498;28;20052;-77
2022/11/11 12:56:37;;;;;;;20.90;14.45;;;;;;;;;;5027236;28;20419;-77
2022/11/11 12:59:33;;;;;;;21.95;13.32;;;;;;;;;;5030698;28;20422;-78
2022/11/11 13:03:04;;;;;;;25.58;16.88;;;;;;;;;;5028105;28;20075;-77
2022/11/11 13:06:11;;;;;;;22.98;14.13;;;;;;;;;;5031460;28;20044;-79
2022/11/11 13:14:35;;;;;;;19.67;13.77;;;;;;;;;;5029482;28;20048;-75
2022/11/11 13:17:21;;;;;;;19.83;13.38;;;;;;;;;;5031747;28;20124;-77
2022/11/11 13:20:15;;;;;;;20.67;13.02;;;;;;;;;;5017084;28;20111;-75
2022/11/11 13:22:59;;;;;;;43.70;15.65;;;;;;;;;;5032059;28;20144;-72
2022/11/11 13:25:53;;;;;;;19.33;13.45;;;;;;;;;;5016462;28;20061;-75
2022/11/11 13:28:43;;;;;;;23.23;13.98;;;;;;;;;;5032348;28;20080;-73
2022/11/11 13:31:36;;;;;;;19.77;13.25;;;;;;;;;;5031935;28;20505;-73
2022/11/11 13:34:21;;;;;;;23.60;13.52;;;;;;;;;;5026711;28;20099;-75
2022/11/11 13:37:08;;;;;;;23.75;14.10;;;;;;;;;;5031477;28;20084;-72
2022/11/11 13:40:05;;;;;;;23.52;13.68;;;;;;;;;;5031111;28;20060;-75
2022/11/11 13:42:52;;;;;;;21.50;12.27;;;;;;;;;;5031348;28;20123;-74
2022/11/11 13:45:40;;;;;;;19.63;13.52;;;;;;;;;;5032056;28;20060;-74
2022/11/11 13:48:28;;;;;;;23.88;13.68;;;;;;;;;;5031594;28;20094;-75
2022/11/11 13:51:20;;;;;;;20.48;13.38;;;;;;;;;;5030359;28;20136;-75
2022/11/11 13:54:20;;;;;;;21.58;12.27;;;;;;;;;;5014011;28;20052;-74
2022/11/11 13:57:15;;;;;;;23.33;13.55;;;;;;;;;;5030397;28;20052;-75
2022/11/11 14:00:04;;;;;;;25.75;14.70;;;;;;;;;;5030219;28;20402;-75
2022/11/11 14:03:11;;;;;;;22.23;15.18;;;;;;;;;;5029098;28;20048;-75
2022/11/11 14:06:13;;;;;;;24.70;14.40;;;;;;;;;;5008120;28;20096;-74
2022/11/11 14:08:58;;;;;;;21.40;14.02;;;;;;;;;;5008341;28;20088;-74
2022/11/11 14:11:42;;;;;;;20.00;13.13;;;;;;;;;;5005528;28;20548;-74
2022/11/11 14:14:36;;;;;;;20.23;13.70;;;;;;;;;;5009202;28;20082;-75
2022/11/11 14:17:21;;;;;;;22.77;14.38;;;;;;;;;;5007812;28;20053;-74
2022/11/11 14:20:43;;;;;;;19.13;12.70;;;;;;;;;;5009527;28;20099;-73
2022/11/11 14:23:43;;;;;;;21.48;14.45;;;;;;;;;;5010586;28;20521;-74
2022/11/11 14:26:28;;;;;;;24.25;15.48;;;;;;;;;;5005962;28;20052;-74
2022/11/11 14:29:19;;;;;;;21.25;14.90;;;;;;;;;;5007396;28;20072;-75
2022/11/11 14:32:29;;;;;;;21.95;15.48;;;;;;;;;;4994943;28;20076;-75
2022/11/11 14:35:32;;;;;;;33.63;17.80;;;;;;;;;;5006796;28;20128;-73
2022/11/11 14:38:27;;;;;;;27.42;17.58;;;;;;;;;;5029938;28;20057;-74
2022/11/11 14:41:49;;;;;;;28.20;18.48;;;;;;;;;;5033541;28;20056;-75
2022/11/11 14:44:39;;;;;;;28.00;17.20;;;;;;;;;;5033779;28;20087;-76
2022/11/11 14:47:32;;;;;;;25.13;15.93;;;;;;;;;;5030612;28;20052;-74
2022/11/11 14:50:36;;;;;;;26.65;17.42;;;;;;;;;;5030374;28;20397;-75
2022/11/11 14:53:32;;;;;;;32.40;18.27;;;;;;;;;;5031068;28;20040;-73
2022/11/11 14:56:17;;;;;;;23.83;16.20;;;;;;;;;;5032074;28;20056;-74
2022/11/11 14:59:07;;;;;;;28.65;17.67;;;;;;;;;;5030540;28;20045;-75
2022/11/11 15:01:54;;;;;;;29.60;19.77;;;;;;;;;;5032372;28;20449;-73
2022/11/11 15:04:39;;;;;;;27.23;17.77;;;;;;;;;;5032411;28;20044;-73
2022/11/11 15:07:42;;;;;;;24.95;17.73;;;;;;;;;;5030405;28;20051;-73
2022/11/11 15:11:02;;;;;;;25.45;16.45;;;;;;;;;;5030496;28;20071;-73
2022/11/11 15:14:05;;;;;;;24.23;15.75;;;;;;;;;;4996905;28;20051;-73
2022/11/11 15:16:55;;;;;;;27.30;15.68;;;;;;;;;;5024949;28;20057;-71
2022/11/11 15:19:58;;;;;;;33.67;16.23;;;;;;;;;;5025752;28;20052;-73
2022/11/11 15:22:52;;;;;;;25.63;17.08;;;;;;;;;;5025714;28;20052;-73
2022/11/11 15:25:42;;;;;;;25.97;16.60;;;;;;;;;;5024655;28;20056;-73
2022/11/11 15:28:55;;;;;;;28.55;18.00;;;;;;;;;;5026362;28;20067;-73
2022/11/11 15:32:00;;;;;;;28.77;17.13;;;;;;;;;;5017912;28;20103;-74
2022/11/11 15:35:01;;;;;;;30.35;18.90;;;;;;;;;;5017783;28;20055;-73
2022/11/11 15:38:09;;;;;;;33.38;20.77;;;;;;;;;;5027367;28;20159;-73
2022/11/11 15:40:59;;;;;;;37.63;22.63;;;;;;;;;;5027909;28;20099;-74
2022/11/11 15:43:43;;;;;;;29.30;22.15;;;;;;;;;;5022723;28;20096;-73
2022/11/11 15:46:29;;;;;;;29.25;19.60;;;;;;;;;;5022386;28;20103;-75
2022/11/11 15:49:34;;;;;;;31.65;19.40;;;;;;;;;;5005463;28;20552;-73
2022/11/11 15:52:22;;;;;;;30.40;18.40;;;;;;;;;;5023906;28;20068;-73
2022/11/11 15:55:39;;;;;;;28.50;17.75;;;;;;;;;;5027523;28;20355;-73
2022/11/11 15:58:32;;;;;;;30.98;18.45;;;;;;;;;;4985212;28;32712;-73
2022/11/11 16:01:17;;;;;;;28.63;17.38;;;;;;;;;;5027047;28;20093;-74
2022/11/11 16:04:08;;;;;;;39.50;19.85;;;;;;;;;;5025271;28;20160;-73
2022/11/11 16:06:52;;;;;;;29.63;18.30;;;;;;;;;;5026169;28;20445;-74
2022/11/11 16:09:37;;;;;;;29.42;19.38;;;;;;;;;;5018906;28;20048;-72
2022/11/11 16:12:45;;;;;;;32.85;20.77;;;;;;;;;;4772628;28;22339;-72
2022/11/11 16:15:56;;;;;;;33.42;20.35;;;;;;;;;;5001280;28;20402;-73
2022/11/11 16:18:41;;;;;;;31.60;20.73;;;;;;;;;;5005882;28;20104;-73
2022/11/11 16:21:39;;;;;;;33.38;19.00;;;;;;;;;;5005292;28;20052;-73
2022/11/11 16:24:25;;;;;;;31.27;20.13;;;;;;;;;;5000882;28;20091;-73
2022/11/11 16:27:18;;;;;;;33.28;19.50;;;;;;;;;;5003530;28;20104;-72
2022/11/11 16:30:32;;;;;;;30.50;19.00;;;;;;;;;;5002605;28;20506;-72
2022/11/11 16:33:26;;;;;;;28.30;17.45;;;;;;;;;;4999181;28;20048;-72
2022/11/11 16:36:11;;;;;;;28.63;16.90;;;;;;;;;;4996427;28;20091;-75
2022/11/11 16:39:18;;;;;;;25.70;15.35;;;;;;;;;;5012080;28;20414;-74
2022/11/11 16:42:29;;;;;;;27.63;17.25;;;;;;;;;;5002582;28;20115;-73
2022/11/11 16:45:22;;;;;;;30.42;18.63;;;;;;;;;;5002974;28;20468;-74
2022/11/11 16:48:32;;;;;;;33.25;16.60;;;;;;;;;;5001113;28;20056;-75
2022/11/11 16:51:46;;;;;;;29.52;17.88;;;;;;;;;;4997772;28;20100;-72
2022/11/11 16:54:36;;;;;;;29.15;17.75;;;;;;;;;;4995941;28;20053;-75
2022/11/11 16:57:25;;;;;;;38.70;21.13;;;;;;;;;;5004615;28;20045;-73
2022/11/11 17:00:19;;;;;;;34.80;20.70;;;;;;;;;;5008144;28;20084;-76
2022/11/11 17:03:23;;;;;;;38.35;23.13;;;;;;;;;;5007420;28;20493;-73
2022/11/11 17:06:08;;;;;;;46.47;25.10;;;;;;;;;;5000114;28;20044;-74
2022/11/11 17:08:53;;;;;;;34.70;20.60;;;;;;;;;;5005136;28;20099;-74
2022/11/11 17:11:38;;;;;;;34.03;20.08;;;;;;;;;;4999981;28;20061;-73
2022/11/11 17:14:24;;;;;;;41.58;21.48;;;;;;;;;;5015756;28;20123;-74
2022/11/11 17:17:09;;;;;;;37.67;21.35;;;;;;;;;;4998416;28;20045;-74
2022/11/11 17:19:55;;;;;;;50.70;28.48;;;;;;;;;;5004017;28;20185;-73
2022/11/11 17:22:53;;;;;;;47.90;27.35;;;;;;;;;;4998906;28;20049;-73
2022/11/11 17:25:38;;;;;;;40.25;23.15;;;;;;;;;;5000765;28;20089;-73
2022/11/11 17:28:23;;;;;;;32.42;19.17;;;;;;;;;;5001674;28;20088;-74
2022/11/11 17:31:10;;;;;;;35.85;22.40;;;;;;;;;;4996059;28;20510;-71
2022/11/11 17:33:54;;;;;;;33.65;21.55;;;;;;;;;;5003055;28;20112;-74
2022/11/11 17:36:39;;;;;;;30.52;19.02;;;;;;;;;;5006404;28;20053;-74
2022/11/11 17:39:26;;;;;;;43.65;23.92;;;;;;;;;;5002670;28;20048;-73
2022/11/11 17:42:10;;;;;;;34.47;20.65;;;;;;;;;;5007294;28;20450;-72
2022/11/11 17:44:55;;;;;;;41.35;25.55;;;;;;;;;;5004877;28;20049;-73
2022/11/11 17:47:39;;;;;;;34.92;23.35;;;;;;;;;;5007369;28;20537;-75
2022/11/11 17:50:24;;;;;;;38.88;22.75;;;;;;;;;;5007014;28;20411;-72
2022/11/11 17:53:08;;;;;;;38.55;24.80;;;;;;;;;;5009707;28;20139;-72
2022/11/11 17:55:52;;;;;;;46.88;28.25;;;;;;;;;;5008648;28;20060;-73
2022/11/11 17:58:37;;;;;;;40.95;25.67;;;;;;;;;;5005998;28;20391;-72
2022/11/11 18:01:21;;;;;;;37.90;22.23;;;;;;;;;;5007026;28;20139;-73